sensor_id;sensor_type;location;lat;lon;timestamp;P1;durP1;ratioP1;P2;durP2;ratioP2
62832;SDS011;48891;49.220;6.920;2023-03-14T00:02:06;93.43;;;57.88;;
62832;SDS011;48891;49.220;6.920;2023-03-14T00:04:32;97.15;;;60.03;;
62832;SDS011;48891;49.220;6.920;2023-03-14T00:06:58;97.10;;;58.58;;
62832;SDS011;48891;49.220;6.920;2023-03-14T00:09:23;96.82;;;60.10;;
62832;SDS011;48891;49.220;6.920;2023-03-14T00:11:48;97.40;;;58.90;;
62832;SDS011;48891;49.220;6.920;2023-03-14T00:14:13;95.45;;;59.97;;
62832;SDS011;48891;49.220;6.920;2023-03-14T00:16:39;104.90;;;60.75;;
62832;SDS011;48891;49.220;6.920;2023-03-14T00:19:04;100.68;;;60.40;;
62832;SDS011;48891;49.220;6.920;2023-03-14T00:21:29;94.05;;;57.75;;
62832;SDS011;48891;49.220;6.920;2023-03-14T00:23:54;102.78;;;60.42;;
62832;SDS011;48891;49.220;6.920;2023-03-14T00:26:20;101.57;;;59.30;;
62832;SDS011;48891;49.220;6.920;2023-03-14T00:28:47;102.07;;;61.13;;
62832;SDS011;48891;49.220;6.920;2023-03-14T00:31:16;101.70;;;59.45;;
62832;SDS011;48891;49.220;6.920;2023-03-14T00:33:42;98.72;;;59.53;;
62832;SDS011;48891;49.220;6.920;2023-03-14T00:36:09;94.32;;;56.72;;
62832;SDS011;48891;49.220;6.920;2023-03-14T00:38:37;100.88;;;59.25;;
62832;SDS011;48891;49.220;6.920;2023-03-14T00:41:04;100.00;;;59.47;;
62832;SDS011;48891;49.220;6.920;2023-03-14T00:45:57;98.38;;;57.40;;
62832;SDS011;48891;49.220;6.920;2023-03-14T00:48:22;99.32;;;60.00;;
62832;SDS011;48891;49.220;6.920;2023-03-14T00:50:47;100.32;;;59.20;;
62832;SDS011;48891;49.220;6.920;2023-03-14T00:53:13;99.07;;;58.65;;
62832;SDS011;48891;49.220;6.920;2023-03-14T00:55:39;99.35;;;60.00;;
62832;SDS011;48891;49.220;6.920;2023-03-14T00:58:05;100.32;;;60.08;;
62832;SDS011;48891;49.220;6.920;2023-03-14T01:00:31;97.93;;;59.58;;
62832;SDS011;48891;49.220;6.920;2023-03-14T01:02:57;101.10;;;59.53;;
62832;SDS011;48891;49.220;6.920;2023-03-14T01:05:22;95.65;;;57.78;;
62832;SDS011;48891;49.220;6.920;2023-03-14T01:07:48;100.07;;;59.13;;
62832;SDS011;48891;49.220;6.920;2023-03-14T01:10:14;100.20;;;58.78;;
62832;SDS011;48891;49.220;6.920;2023-03-14T01:12:39;100.57;;;59.60;;
62832;SDS011;48891;49.220;6.920;2023-03-14T01:15:05;98.15;;;57.38;;
62832;SDS011;48891;49.220;6.920;2023-03-14T01:17:30;100.05;;;59.13;;
62832;SDS011;48891;49.220;6.920;2023-03-14T01:19:56;104.43;;;60.35;;
62832;SDS011;48891;49.220;6.920;2023-03-14T01:22:21;97.38;;;58.75;;
62832;SDS011;48891;49.220;6.920;2023-03-14T01:24:47;101.18;;;59.70;;
62832;SDS011;48891;49.220;6.920;2023-03-14T01:27:12;102.97;;;57.72;;
62832;SDS011;48891;49.220;6.920;2023-03-14T01:29:37;104.55;;;60.28;;
62832;SDS011;48891;49.220;6.920;2023-03-14T01:32:03;97.90;;;57.15;;
62832;SDS011;48891;49.220;6.920;2023-03-14T01:34:28;101.82;;;57.50;;
62832;SDS011;48891;49.220;6.920;2023-03-14T01:36:53;104.20;;;59.47;;
62832;SDS011;48891;49.220;6.920;2023-03-14T01:39:19;101.75;;;57.63;;
62832;SDS011;48891;49.220;6.920;2023-03-14T01:41:44;101.43;;;57.72;;
62832;SDS011;48891;49.220;6.920;2023-03-14T01:44:13;96.78;;;56.55;;
62832;SDS011;48891;49.220;6.920;2023-03-14T01:46:39;96.55;;;56.60;;
62832;SDS011;48891;49.220;6.920;2023-03-14T01:56:41;98.37;;;56.87;;
62832;SDS011;48891;49.220;6.920;2023-03-14T01:59:08;98.93;;;56.72;;
62832;SDS011;48891;49.220;6.920;2023-03-14T02:01:38;102.07;;;56.70;;
62832;SDS011;48891;49.220;6.920;2023-03-14T02:04:07;96.72;;;55.20;;
62832;SDS011;48891;49.220;6.920;2023-03-14T02:06:37;90.95;;;53.35;;
62832;SDS011;48891;49.220;6.920;2023-03-14T02:09:16;98.32;;;54.45;;
62832;SDS011;48891;49.220;6.920;2023-03-14T02:11:41;98.15;;;56.22;;
62832;SDS011;48891;49.220;6.920;2023-03-14T02:14:08;97.80;;;56.20;;
62832;SDS011;48891;49.220;6.920;2023-03-14T02:16:42;95.88;;;54.58;;
62832;SDS011;48891;49.220;6.920;2023-03-14T02:19:07;105.40;;;58.28;;
62832;SDS011;48891;49.220;6.920;2023-03-14T02:24:25;95.80;;;55.88;;
62832;SDS011;48891;49.220;6.920;2023-03-14T02:27:18;92.05;;;54.03;;
62832;SDS011;48891;49.220;6.920;2023-03-14T02:30:02;98.68;;;55.40;;
62832;SDS011;48891;49.220;6.920;2023-03-14T02:32:43;100.93;;;53.72;;
62832;SDS011;48891;49.220;6.920;2023-03-14T02:35:14;94.68;;;53.20;;
62832;SDS011;48891;49.220;6.920;2023-03-14T02:37:46;93.65;;;53.95;;
62832;SDS011;48891;49.220;6.920;2023-03-14T02:40:14;93.20;;;52.67;;
62832;SDS011;48891;49.220;6.920;2023-03-14T02:42:40;97.25;;;55.03;;
62832;SDS011;48891;49.220;6.920;2023-03-14T02:47:33;95.50;;;54.28;;
62832;SDS011;48891;49.220;6.920;2023-03-14T02:50:01;94.75;;;52.92;;
62832;SDS011;48891;49.220;6.920;2023-03-14T02:52:31;94.30;;;54.22;;
62832;SDS011;48891;49.220;6.920;2023-03-14T02:54:56;97.40;;;54.10;;
62832;SDS011;48891;49.220;6.920;2023-03-14T02:57:21;93.60;;;53.00;;
62832;SDS011;48891;49.220;6.920;2023-03-14T02:59:47;94.93;;;53.58;;
62832;SDS011;48891;49.220;6.920;2023-03-14T03:02:12;93.80;;;52.35;;
62832;SDS011;48891;49.220;6.920;2023-03-14T03:04:37;95.45;;;54.75;;
62832;SDS011;48891;49.220;6.920;2023-03-14T03:07:03;95.47;;;54.95;;
62832;SDS011;48891;49.220;6.920;2023-03-14T03:09:28;91.05;;;52.75;;
62832;SDS011;48891;49.220;6.920;2023-03-14T03:11:54;91.22;;;53.90;;
62832;SDS011;48891;49.220;6.920;2023-03-14T03:14:19;96.57;;;52.20;;
62832;SDS011;48891;49.220;6.920;2023-03-14T03:16:44;93.47;;;53.58;;
62832;SDS011;48891;49.220;6.920;2023-03-14T03:19:09;91.80;;;53.90;;
62832;SDS011;48891;49.220;6.920;2023-03-14T03:21:35;94.38;;;52.80;;
62832;SDS011;48891;49.220;6.920;2023-03-14T03:24:00;95.00;;;51.95;;
62832;SDS011;48891;49.220;6.920;2023-03-14T03:26:25;98.53;;;54.00;;
62832;SDS011;48891;49.220;6.920;2023-03-14T03:28:51;90.55;;;52.47;;
62832;SDS011;48891;49.220;6.920;2023-03-14T03:31:16;91.80;;;52.10;;
62832;SDS011;48891;49.220;6.920;2023-03-14T03:33:41;100.43;;;55.97;;
62832;SDS011;48891;49.220;6.920;2023-03-14T03:36:07;94.57;;;53.08;;
62832;SDS011;48891;49.220;6.920;2023-03-14T03:38:33;97.78;;;54.67;;
62832;SDS011;48891;49.220;6.920;2023-03-14T03:40:58;97.00;;;54.95;;
62832;SDS011;48891;49.220;6.920;2023-03-14T03:43:26;93.75;;;54.58;;
62832;SDS011;48891;49.220;6.920;2023-03-14T03:45:51;93.28;;;53.90;;
62832;SDS011;48891;49.220;6.920;2023-03-14T03:48:17;94.07;;;54.63;;
62832;SDS011;48891;49.220;6.920;2023-03-14T03:50:45;96.35;;;54.63;;
62832;SDS011;48891;49.220;6.920;2023-03-14T03:53:11;96.38;;;53.40;;
62832;SDS011;48891;49.220;6.920;2023-03-14T03:55:36;93.90;;;54.38;;
62832;SDS011;48891;49.220;6.920;2023-03-14T03:58:02;90.93;;;53.28;;
62832;SDS011;48891;49.220;6.920;2023-03-14T04:00:27;90.72;;;51.42;;
62832;SDS011;48891;49.220;6.920;2023-03-14T04:02:52;92.65;;;54.20;;
62832;SDS011;48891;49.220;6.920;2023-03-14T04:05:18;93.60;;;52.35;;
62832;SDS011;48891;49.220;6.920;2023-03-14T04:07:43;91.05;;;51.17;;
62832;SDS011;48891;49.220;6.920;2023-03-14T04:10:09;91.55;;;51.47;;
62832;SDS011;48891;49.220;6.920;2023-03-14T04:12:35;91.00;;;53.10;;
62832;SDS011;48891;49.220;6.920;2023-03-14T04:15:00;90.93;;;49.97;;
62832;SDS011;48891;49.220;6.920;2023-03-14T04:17:25;90.20;;;51.22;;
62832;SDS011;48891;49.220;6.920;2023-03-14T04:19:50;91.43;;;51.45;;
62832;SDS011;48891;49.220;6.920;2023-03-14T04:22:16;90.55;;;51.22;;
62832;SDS011;48891;49.220;6.920;2023-03-14T04:24:41;91.28;;;51.75;;
62832;SDS011;48891;49.220;6.920;2023-03-14T04:27:06;87.30;;;51.47;;
62832;SDS011;48891;49.220;6.920;2023-03-14T04:29:32;92.15;;;52.17;;
62832;SDS011;48891;49.220;6.920;2023-03-14T04:31:57;93.05;;;51.35;;
62832;SDS011;48891;49.220;6.920;2023-03-14T04:34:22;86.25;;;48.78;;
62832;SDS011;48891;49.220;6.920;2023-03-14T04:36:48;90.15;;;51.22;;
62832;SDS011;48891;49.220;6.920;2023-03-14T04:39:13;91.07;;;51.92;;
62832;SDS011;48891;49.220;6.920;2023-03-14T04:41:38;87.90;;;50.13;;
62832;SDS011;48891;49.220;6.920;2023-03-14T04:44:03;82.93;;;49.63;;
62832;SDS011;48891;49.220;6.920;2023-03-14T04:46:29;84.45;;;48.80;;
62832;SDS011;48891;49.220;6.920;2023-03-14T04:48:54;87.22;;;50.58;;
62832;SDS011;48891;49.220;6.920;2023-03-14T04:51:19;86.75;;;49.15;;
62832;SDS011;48891;49.220;6.920;2023-03-14T04:53:44;83.38;;;50.75;;
62832;SDS011;48891;49.220;6.920;2023-03-14T04:56:10;85.70;;;50.22;;
62832;SDS011;48891;49.220;6.920;2023-03-14T04:58:35;85.47;;;48.08;;
62832;SDS011;48891;49.220;6.920;2023-03-14T05:01:01;86.10;;;48.65;;
62832;SDS011;48891;49.220;6.920;2023-03-14T05:03:29;85.43;;;48.25;;
62832;SDS011;48891;49.220;6.920;2023-03-14T05:05:55;82.95;;;47.75;;
62832;SDS011;48891;49.220;6.920;2023-03-14T05:08:20;86.30;;;47.95;;
62832;SDS011;48891;49.220;6.920;2023-03-14T05:10:51;83.22;;;47.22;;
62832;SDS011;48891;49.220;6.920;2023-03-14T05:13:19;83.75;;;47.63;;
62832;SDS011;48891;49.220;6.920;2023-03-14T05:15:46;87.80;;;48.13;;
62832;SDS011;48891;49.220;6.920;2023-03-14T05:18:11;82.32;;;47.60;;
62832;SDS011;48891;49.220;6.920;2023-03-14T05:20:36;83.43;;;49.25;;
62832;SDS011;48891;49.220;6.920;2023-03-14T05:23:01;84.50;;;47.55;;
62832;SDS011;48891;49.220;6.920;2023-03-14T05:25:27;83.53;;;47.85;;
62832;SDS011;48891;49.220;6.920;2023-03-14T05:27:55;82.63;;;48.25;;
62832;SDS011;48891;49.220;6.920;2023-03-14T05:30:20;83.70;;;47.97;;
62832;SDS011;48891;49.220;6.920;2023-03-14T05:32:46;80.15;;;48.30;;
62832;SDS011;48891;49.220;6.920;2023-03-14T05:35:12;81.53;;;46.35;;
62832;SDS011;48891;49.220;6.920;2023-03-14T05:37:37;81.40;;;46.55;;
62832;SDS011;48891;49.220;6.920;2023-03-14T05:40:03;80.85;;;47.95;;
62832;SDS011;48891;49.220;6.920;2023-03-14T05:42:29;81.30;;;46.33;;
62832;SDS011;48891;49.220;6.920;2023-03-14T05:44:54;78.82;;;44.72;;
62832;SDS011;48891;49.220;6.920;2023-03-14T05:47:20;81.97;;;46.40;;
62832;SDS011;48891;49.220;6.920;2023-03-14T05:49:45;79.07;;;46.22;;
62832;SDS011;48891;49.220;6.920;2023-03-14T05:52:10;77.68;;;44.45;;
62832;SDS011;48891;49.220;6.920;2023-03-14T05:54:35;82.22;;;45.60;;
62832;SDS011;48891;49.220;6.920;2023-03-14T05:57:00;78.70;;;46.95;;
62832;SDS011;48891;49.220;6.920;2023-03-14T05:59:26;78.97;;;46.17;;
62832;SDS011;48891;49.220;6.920;2023-03-14T06:01:51;79.88;;;45.70;;
62832;SDS011;48891;49.220;6.920;2023-03-14T06:04:16;79.75;;;46.22;;
62832;SDS011;48891;49.220;6.920;2023-03-14T06:06:42;79.78;;;45.88;;
62832;SDS011;48891;49.220;6.920;2023-03-14T06:09:07;78.72;;;45.30;;
62832;SDS011;48891;49.220;6.920;2023-03-14T06:11:33;77.57;;;45.83;;
62832;SDS011;48891;49.220;6.920;2023-03-14T06:13:58;75.72;;;44.45;;
62832;SDS011;48891;49.220;6.920;2023-03-14T06:16:24;79.15;;;45.92;;
62832;SDS011;48891;49.220;6.920;2023-03-14T06:18:49;78.38;;;44.40;;
62832;SDS011;48891;49.220;6.920;2023-03-14T06:21:14;76.40;;;44.83;;
62832;SDS011;48891;49.220;6.920;2023-03-14T06:23:40;75.53;;;45.63;;
62832;SDS011;48891;49.220;6.920;2023-03-14T06:26:06;77.95;;;43.78;;
62832;SDS011;48891;49.220;6.920;2023-03-14T06:28:31;78.03;;;44.55;;
62832;SDS011;48891;49.220;6.920;2023-03-14T06:30:56;74.93;;;44.75;;
62832;SDS011;48891;49.220;6.920;2023-03-14T06:33:23;76.43;;;44.80;;
62832;SDS011;48891;49.220;6.920;2023-03-14T06:35:49;75.50;;;44.95;;
62832;SDS011;48891;49.220;6.920;2023-03-14T06:38:14;77.70;;;46.28;;
62832;SDS011;48891;49.220;6.920;2023-03-14T06:40:39;72.95;;;44.20;;
62832;SDS011;48891;49.220;6.920;2023-03-14T06:43:04;79.40;;;44.33;;
62832;SDS011;48891;49.220;6.920;2023-03-14T06:45:30;73.53;;;43.75;;
62832;SDS011;48891;49.220;6.920;2023-03-14T06:47:55;77.85;;;44.38;;
62832;SDS011;48891;49.220;6.920;2023-03-14T06:50:20;79.07;;;45.47;;
62832;SDS011;48891;49.220;6.920;2023-03-14T06:52:45;71.90;;;43.38;;
62832;SDS011;48891;49.220;6.920;2023-03-14T06:55:11;73.30;;;44.80;;
62832;SDS011;48891;49.220;6.920;2023-03-14T06:57:36;74.70;;;44.33;;
62832;SDS011;48891;49.220;6.920;2023-03-14T07:00:02;73.38;;;41.92;;
62832;SDS011;48891;49.220;6.920;2023-03-14T07:02:29;73.68;;;44.03;;
62832;SDS011;48891;49.220;6.920;2023-03-14T07:04:54;71.82;;;44.05;;
62832;SDS011;48891;49.220;6.920;2023-03-14T07:07:19;73.18;;;43.30;;
62832;SDS011;48891;49.220;6.920;2023-03-14T07:09:44;73.35;;;43.92;;
62832;SDS011;48891;49.220;6.920;2023-03-14T07:12:09;78.53;;;44.50;;
62832;SDS011;48891;49.220;6.920;2023-03-14T07:14:35;67.25;;;42.05;;
62832;SDS011;48891;49.220;6.920;2023-03-14T07:17:00;69.88;;;42.33;;
62832;SDS011;48891;49.220;6.920;2023-03-14T07:19:25;68.55;;;41.97;;
62832;SDS011;48891;49.220;6.920;2023-03-14T07:21:51;73.47;;;42.70;;
62832;SDS011;48891;49.220;6.920;2023-03-14T07:24:16;73.15;;;43.15;;
62832;SDS011;48891;49.220;6.920;2023-03-14T07:26:42;71.43;;;41.28;;
62832;SDS011;48891;49.220;6.920;2023-03-14T07:29:07;68.80;;;41.88;;
62832;SDS011;48891;49.220;6.920;2023-03-14T07:31:32;71.63;;;43.03;;
62832;SDS011;48891;49.220;6.920;2023-03-14T07:33:58;71.43;;;42.30;;
62832;SDS011;48891;49.220;6.920;2023-03-14T07:36:23;75.20;;;42.28;;
62832;SDS011;48891;49.220;6.920;2023-03-14T07:38:48;69.43;;;41.97;;
62832;SDS011;48891;49.220;6.920;2023-03-14T07:41:14;75.53;;;42.42;;
62832;SDS011;48891;49.220;6.920;2023-03-14T07:43:40;69.57;;;40.90;;
62832;SDS011;48891;49.220;6.920;2023-03-14T07:46:05;69.38;;;42.05;;
62832;SDS011;48891;49.220;6.920;2023-03-14T07:48:31;70.10;;;41.70;;
62832;SDS011;48891;49.220;6.920;2023-03-14T07:50:57;71.85;;;42.60;;
62832;SDS011;48891;49.220;6.920;2023-03-14T07:53:22;69.72;;;41.78;;
62832;SDS011;48891;49.220;6.920;2023-03-14T07:55:49;70.90;;;40.97;;
62832;SDS011;48891;49.220;6.920;2023-03-14T07:58:16;65.25;;;39.10;;
62832;SDS011;48891;49.220;6.920;2023-03-14T08:00:41;65.60;;;41.70;;
62832;SDS011;48891;49.220;6.920;2023-03-14T08:03:07;65.57;;;39.50;;
62832;SDS011;48891;49.220;6.920;2023-03-14T08:05:37;68.15;;;41.78;;
62832;SDS011;48891;49.220;6.920;2023-03-14T08:08:03;65.47;;;39.10;;
62832;SDS011;48891;49.220;6.920;2023-03-14T08:10:29;68.13;;;40.55;;
62832;SDS011;48891;49.220;6.920;2023-03-14T08:12:55;65.30;;;40.60;;
62832;SDS011;48891;49.220;6.920;2023-03-14T08:15:22;66.97;;;40.63;;
62832;SDS011;48891;49.220;6.920;2023-03-14T08:17:49;63.60;;;38.15;;
62832;SDS011;48891;49.220;6.920;2023-03-14T08:20:14;63.78;;;39.85;;
62832;SDS011;48891;49.220;6.920;2023-03-14T08:22:40;65.75;;;40.25;;
62832;SDS011;48891;49.220;6.920;2023-03-14T08:25:05;69.38;;;39.45;;
62832;SDS011;48891;49.220;6.920;2023-03-14T08:27:31;61.50;;;37.22;;
62832;SDS011;48891;49.220;6.920;2023-03-14T08:29:57;63.85;;;39.72;;
62832;SDS011;48891;49.220;6.920;2023-03-14T08:32:22;63.20;;;39.22;;
62832;SDS011;48891;49.220;6.920;2023-03-14T08:34:47;63.80;;;38.75;;
62832;SDS011;48891;49.220;6.920;2023-03-14T08:37:13;57.58;;;36.40;;
62832;SDS011;48891;49.220;6.920;2023-03-14T08:39:38;64.00;;;39.40;;
62832;SDS011;48891;49.220;6.920;2023-03-14T08:42:03;61.22;;;37.20;;
62832;SDS011;48891;49.220;6.920;2023-03-14T08:44:28;61.20;;;37.42;;
62832;SDS011;48891;49.220;6.920;2023-03-14T08:46:54;58.28;;;36.63;;
62832;SDS011;48891;49.220;6.920;2023-03-14T08:49:20;64.97;;;38.75;;
62832;SDS011;48891;49.220;6.920;2023-03-14T08:51:45;59.08;;;35.38;;
62832;SDS011;48891;49.220;6.920;2023-03-14T08:54:10;60.45;;;37.35;;
62832;SDS011;48891;49.220;6.920;2023-03-14T08:56:36;61.63;;;37.65;;
62832;SDS011;48891;49.220;6.920;2023-03-14T08:59:01;59.90;;;37.22;;
62832;SDS011;48891;49.220;6.920;2023-03-14T09:01:27;58.13;;;36.05;;
62832;SDS011;48891;49.220;6.920;2023-03-14T09:03:52;60.10;;;36.20;;
62832;SDS011;48891;49.220;6.920;2023-03-14T09:06:17;56.58;;;36.00;;
62832;SDS011;48891;49.220;6.920;2023-03-14T09:08:42;57.88;;;36.53;;
62832;SDS011;48891;49.220;6.920;2023-03-14T09:11:08;61.25;;;37.20;;
62832;SDS011;48891;49.220;6.920;2023-03-14T09:13:33;60.22;;;36.50;;
62832;SDS011;48891;49.220;6.920;2023-03-14T09:15:59;60.20;;;36.35;;
62832;SDS011;48891;49.220;6.920;2023-03-14T09:18:24;60.05;;;35.10;;
62832;SDS011;48891;49.220;6.920;2023-03-14T09:20:49;59.33;;;35.15;;
62832;SDS011;48891;49.220;6.920;2023-03-14T09:23:15;57.15;;;35.55;;
62832;SDS011;48891;49.220;6.920;2023-03-14T09:25:40;58.88;;;35.72;;
62832;SDS011;48891;49.220;6.920;2023-03-14T09:28:05;53.80;;;34.85;;
62832;SDS011;48891;49.220;6.920;2023-03-14T09:30:31;60.15;;;35.90;;
62832;SDS011;48891;49.220;6.920;2023-03-14T09:32:56;52.97;;;33.33;;
62832;SDS011;48891;49.220;6.920;2023-03-14T09:35:22;57.15;;;33.78;;
62832;SDS011;48891;49.220;6.920;2023-03-14T09:37:47;55.25;;;34.00;;
62832;SDS011;48891;49.220;6.920;2023-03-14T09:40:14;57.30;;;33.80;;
62832;SDS011;48891;49.220;6.920;2023-03-14T09:45:09;55.67;;;32.58;;
62832;SDS011;48891;49.220;6.920;2023-03-14T09:47:40;55.03;;;33.22;;
62832;SDS011;48891;49.220;6.920;2023-03-14T09:50:10;53.70;;;31.60;;
62832;SDS011;48891;49.220;6.920;2023-03-14T09:52:39;54.15;;;33.00;;
62832;SDS011;48891;49.220;6.920;2023-03-14T09:55:25;54.08;;;31.50;;
62832;SDS011;48891;49.220;6.920;2023-03-14T09:57:51;53.80;;;32.50;;
62832;SDS011;48891;49.220;6.920;2023-03-14T10:00:24;51.58;;;31.58;;
62832;SDS011;48891;49.220;6.920;2023-03-14T10:02:53;51.65;;;31.05;;
62832;SDS011;48891;49.220;6.920;2023-03-14T10:05:40;51.63;;;31.58;;
62832;SDS011;48891;49.220;6.920;2023-03-14T10:08:08;50.78;;;30.50;;
62832;SDS011;48891;49.220;6.920;2023-03-14T10:10:35;51.13;;;31.52;;
62832;SDS011;48891;49.220;6.920;2023-03-14T10:15:33;54.03;;;32.50;;
62832;SDS011;48891;49.220;6.920;2023-03-14T10:18:00;50.58;;;31.63;;
62832;SDS011;48891;49.220;6.920;2023-03-14T10:23:01;49.95;;;31.13;;
62832;SDS011;48891;49.220;6.920;2023-03-14T10:25:29;47.92;;;29.45;;
62832;SDS011;48891;49.220;6.920;2023-03-14T10:27:56;48.95;;;29.38;;
62832;SDS011;48891;49.220;6.920;2023-03-14T10:33:11;45.35;;;28.92;;
62832;SDS011;48891;49.220;6.920;2023-03-14T10:35:45;50.92;;;30.23;;
62832;SDS011;48891;49.220;6.920;2023-03-14T10:38:17;47.33;;;29.17;;
62832;SDS011;48891;49.220;6.920;2023-03-14T10:40:46;48.05;;;29.95;;
62832;SDS011;48891;49.220;6.920;2023-03-14T10:43:13;48.00;;;29.42;;
62832;SDS011;48891;49.220;6.920;2023-03-14T10:45:43;46.92;;;28.88;;
62832;SDS011;48891;49.220;6.920;2023-03-14T10:50:55;50.38;;;29.65;;
62832;SDS011;48891;49.220;6.920;2023-03-14T10:53:22;45.35;;;26.77;;
62832;SDS011;48891;49.220;6.920;2023-03-14T10:55:48;43.75;;;28.15;;
62832;SDS011;48891;49.220;6.920;2023-03-14T10:58:24;45.63;;;28.27;;
62832;SDS011;48891;49.220;6.920;2023-03-14T11:01:05;42.85;;;25.77;;
62832;SDS011;48891;49.220;6.920;2023-03-14T11:03:33;47.67;;;28.60;;
62832;SDS011;48891;49.220;6.920;2023-03-14T11:08:31;42.00;;;26.27;;
62832;SDS011;48891;49.220;6.920;2023-03-14T11:13:39;41.67;;;25.65;;
62832;SDS011;48891;49.220;6.920;2023-03-14T11:19:11;41.97;;;26.05;;
62832;SDS011;48891;49.220;6.920;2023-03-14T11:29:38;41.60;;;25.83;;
62832;SDS011;48891;49.220;6.920;2023-03-14T11:35:30;41.25;;;25.55;;
62832;SDS011;48891;49.220;6.920;2023-03-14T11:40:30;41.83;;;24.80;;
62832;SDS011;48891;49.220;6.920;2023-03-14T11:42:59;41.92;;;26.08;;
62832;SDS011;48891;49.220;6.920;2023-03-14T11:45:35;39.97;;;25.15;;
62832;SDS011;48891;49.220;6.920;2023-03-14T11:48:17;41.05;;;24.80;;
62832;SDS011;48891;49.220;6.920;2023-03-14T11:50:52;42.03;;;25.30;;
62832;SDS011;48891;49.220;6.920;2023-03-14T11:53:25;39.00;;;23.75;;
62832;SDS011;48891;49.220;6.920;2023-03-14T11:56:04;37.40;;;24.25;;
62832;SDS011;48891;49.220;6.920;2023-03-14T11:58:42;41.65;;;25.55;;
62832;SDS011;48891;49.220;6.920;2023-03-14T12:01:22;39.60;;;23.45;;
62832;SDS011;48891;49.220;6.920;2023-03-14T12:04:02;39.92;;;24.35;;
62832;SDS011;48891;49.220;6.920;2023-03-14T12:09:15;40.33;;;24.63;;
62832;SDS011;48891;49.220;6.920;2023-03-14T12:11:59;38.17;;;24.05;;
62832;SDS011;48891;49.220;6.920;2023-03-14T12:14:34;40.35;;;24.98;;
62832;SDS011;48891;49.220;6.920;2023-03-14T12:19:44;40.03;;;24.70;;
62832;SDS011;48891;49.220;6.920;2023-03-14T12:24:36;38.87;;;25.93;;
62832;SDS011;48891;49.220;6.920;2023-03-14T12:27:04;37.83;;;24.50;;
62832;SDS011;48891;49.220;6.920;2023-03-14T12:29:31;39.05;;;25.17;;
62832;SDS011;48891;49.220;6.920;2023-03-14T12:34:49;36.00;;;24.17;;
62832;SDS011;48891;49.220;6.920;2023-03-14T12:37:20;37.28;;;24.25;;
62832;SDS011;48891;49.220;6.920;2023-03-14T12:42:38;37.40;;;23.85;;
62832;SDS011;48891;49.220;6.920;2023-03-14T12:45:22;39.00;;;24.88;;
62832;SDS011;48891;49.220;6.920;2023-03-14T12:51:12;39.92;;;23.88;;
62832;SDS011;48891;49.220;6.920;2023-03-14T12:56:48;38.58;;;24.58;;
62832;SDS011;48891;49.220;6.920;2023-03-14T13:01:58;38.83;;;24.17;;
62832;SDS011;48891;49.220;6.920;2023-03-14T13:07:11;37.13;;;24.13;;
62832;SDS011;48891;49.220;6.920;2023-03-14T13:10:39;37.38;;;23.83;;
62832;SDS011;48891;49.220;6.920;2023-03-14T13:12:47;38.20;;;24.45;;
62832;SDS011;48891;49.220;6.920;2023-03-14T13:15:19;40.88;;;25.35;;
62832;SDS011;48891;49.220;6.920;2023-03-14T13:17:49;38.33;;;25.80;;
62832;SDS011;48891;49.220;6.920;2023-03-14T13:22:57;35.75;;;24.30;;
62832;SDS011;48891;49.220;6.920;2023-03-14T13:25:22;41.83;;;25.75;;
62832;SDS011;48891;49.220;6.920;2023-03-14T13:27:48;36.33;;;23.95;;
62832;SDS011;48891;49.220;6.920;2023-03-14T13:30:48;36.42;;;24.02;;
62832;SDS011;48891;49.220;6.920;2023-03-14T13:33:11;40.78;;;26.02;;
62832;SDS011;48891;49.220;6.920;2023-03-14T13:35:40;37.90;;;24.88;;
62832;SDS011;48891;49.220;6.920;2023-03-14T13:38:21;38.55;;;25.48;;
62832;SDS011;48891;49.220;6.920;2023-03-14T13:40:48;36.08;;;23.88;;
62832;SDS011;48891;49.220;6.920;2023-03-14T13:45:50;35.33;;;23.10;;
62832;SDS011;48891;49.220;6.920;2023-03-14T13:48:28;38.30;;;24.83;;
62832;SDS011;48891;49.220;6.920;2023-03-14T13:50:56;37.90;;;25.05;;
62832;SDS011;48891;49.220;6.920;2023-03-14T13:53:25;35.05;;;23.60;;
62832;SDS011;48891;49.220;6.920;2023-03-14T13:55:51;38.63;;;24.92;;
62832;SDS011;48891;49.220;6.920;2023-03-14T13:58:21;38.38;;;25.10;;
62832;SDS011;48891;49.220;6.920;2023-03-14T14:00:55;34.05;;;24.50;;
62832;SDS011;48891;49.220;6.920;2023-03-14T14:03:21;36.63;;;25.52;;
62832;SDS011;48891;49.220;6.920;2023-03-14T14:05:47;36.47;;;25.10;;
62832;SDS011;48891;49.220;6.920;2023-03-14T14:08:13;37.00;;;24.75;;
62832;SDS011;48891;49.220;6.920;2023-03-14T14:10:38;35.90;;;25.33;;
62832;SDS011;48891;49.220;6.920;2023-03-14T14:13:05;35.78;;;24.88;;
62832;SDS011;48891;49.220;6.920;2023-03-14T14:15:36;36.70;;;25.33;;
62832;SDS011;48891;49.220;6.920;2023-03-14T14:18:07;36.75;;;25.67;;
62832;SDS011;48891;49.220;6.920;2023-03-14T14:20:45;36.95;;;25.17;;
62832;SDS011;48891;49.220;6.920;2023-03-14T14:25:45;35.08;;;22.88;;
62832;SDS011;48891;49.220;6.920;2023-03-14T14:28:30;38.28;;;24.15;;
62832;SDS011;48891;49.220;6.920;2023-03-14T14:31:01;36.60;;;24.48;;
62832;SDS011;48891;49.220;6.920;2023-03-14T14:33:39;36.42;;;24.33;;
62832;SDS011;48891;49.220;6.920;2023-03-14T14:36:12;37.22;;;25.15;;
62832;SDS011;48891;49.220;6.920;2023-03-14T14:38:42;36.45;;;24.50;;
62832;SDS011;48891;49.220;6.920;2023-03-14T14:41:14;36.95;;;24.35;;
62832;SDS011;48891;49.220;6.920;2023-03-14T14:43:39;38.33;;;25.13;;
62832;SDS011;48891;49.220;6.920;2023-03-14T14:46:06;35.67;;;24.55;;
62832;SDS011;48891;49.220;6.920;2023-03-14T14:48:35;38.42;;;25.20;;
62832;SDS011;48891;49.220;6.920;2023-03-14T14:51:03;34.65;;;24.35;;
62832;SDS011;48891;49.220;6.920;2023-03-14T14:53:38;36.08;;;25.80;;
62832;SDS011;48891;49.220;6.920;2023-03-14T14:56:17;34.38;;;24.88;;
62832;SDS011;48891;49.220;6.920;2023-03-14T14:58:45;37.92;;;25.80;;
62832;SDS011;48891;49.220;6.920;2023-03-14T15:01:15;35.97;;;25.25;;
62832;SDS011;48891;49.220;6.920;2023-03-14T15:03:51;39.03;;;25.45;;
62832;SDS011;48891;49.220;6.920;2023-03-14T15:06:17;36.97;;;25.45;;
62832;SDS011;48891;49.220;6.920;2023-03-14T15:08:44;40.67;;;25.98;;
62832;SDS011;48891;49.220;6.920;2023-03-14T15:11:15;38.72;;;25.73;;
62832;SDS011;48891;49.220;6.920;2023-03-14T15:13:42;36.22;;;24.38;;
62832;SDS011;48891;49.220;6.920;2023-03-14T15:16:10;37.10;;;25.85;;
62832;SDS011;48891;49.220;6.920;2023-03-14T15:18:37;36.90;;;24.60;;
62832;SDS011;48891;49.220;6.920;2023-03-14T15:21:02;35.20;;;24.15;;
62832;SDS011;48891;49.220;6.920;2023-03-14T15:23:27;38.67;;;25.77;;
62832;SDS011;48891;49.220;6.920;2023-03-14T15:25:53;36.08;;;25.63;;
62832;SDS011;48891;49.220;6.920;2023-03-14T15:28:19;37.28;;;25.70;;
62832;SDS011;48891;49.220;6.920;2023-03-14T15:30:46;35.88;;;24.73;;
62832;SDS011;48891;49.220;6.920;2023-03-14T15:33:13;37.33;;;25.05;;
62832;SDS011;48891;49.220;6.920;2023-03-14T15:35:39;36.03;;;24.20;;
62832;SDS011;48891;49.220;6.920;2023-03-14T15:38:05;37.83;;;25.20;;
62832;SDS011;48891;49.220;6.920;2023-03-14T15:40:30;36.72;;;25.35;;
62832;SDS011;48891;49.220;6.920;2023-03-14T15:42:55;36.20;;;24.92;;
62832;SDS011;48891;49.220;6.920;2023-03-14T15:45:21;38.92;;;25.95;;
62832;SDS011;48891;49.220;6.920;2023-03-14T15:47:46;37.38;;;25.25;;